createdAt,value
2019-06-10T00:00:41.924Z,9.33
2019-06-10T00:03:11.736Z,8.40
2019-06-10T00:05:41.356Z,12.30
2019-06-10T00:08:11.809Z,12.00
2019-06-10T00:10:42.051Z,11.97
2019-06-10T00:13:11.937Z,10.83
2019-06-10T00:15:41.514Z,10.67
2019-06-10T00:18:34.012Z,7.60
2019-06-10T00:20:41.369Z,7.57
2019-06-10T00:23:12.338Z,8.30
2019-06-10T00:25:41.870Z,11.10
2019-06-10T00:28:11.977Z,10.53
2019-06-10T00:30:41.687Z,8.93
2019-06-10T00:33:12.514Z,11.13
2019-06-10T00:35:41.433Z,11.53
2019-06-10T00:38:13.980Z,9.93
2019-06-10T00:40:41.525Z,12.23
2019-06-10T00:43:13.099Z,8.23
2019-06-10T00:45:41.424Z,7.43
2019-06-10T00:48:20.189Z,15.23
2019-06-10T00:50:41.537Z,13.20
2019-06-10T00:53:14.267Z,11.57
2019-06-10T00:55:41.763Z,9.47
2019-06-10T00:58:13.378Z,17.00
2019-06-10T01:00:41.554Z,10.13
2019-06-10T01:03:13.467Z,8.20
2019-06-10T01:05:42.158Z,8.70
2019-06-10T01:08:13.893Z,11.17
2019-06-10T01:10:43.810Z,9.80
2019-06-10T01:13:14.000Z,10.90
2019-06-10T01:15:42.847Z,15.70
2019-06-10T01:18:30.473Z,8.30
2019-06-10T01:20:42.043Z,8.30
2019-06-10T01:23:13.568Z,6.80
2019-06-10T01:25:42.538Z,7.00
2019-06-10T01:28:14.555Z,10.63
2019-06-10T01:30:42.123Z,10.60
2019-06-10T01:33:12.745Z,7.90
2019-06-10T01:35:41.753Z,8.17
2019-06-10T01:38:13.404Z,9.37
2019-06-10T01:40:42.533Z,8.50
2019-06-10T01:43:14.102Z,11.83
2019-06-10T01:45:43.448Z,9.03
2019-06-10T01:48:14.912Z,9.17
2019-06-10T01:50:42.662Z,11.77
2019-06-10T01:53:13.783Z,8.60
2019-06-10T01:55:42.154Z,11.00
2019-06-10T01:58:14.653Z,6.30
2019-06-10T02:00:46.123Z,5.80
2019-06-10T02:03:17.073Z,8.90
2019-06-10T02:05:45.427Z,10.73
2019-06-10T02:08:15.905Z,13.30
2019-06-10T02:10:44.771Z,13.47
2019-06-10T02:13:33.227Z,9.40
2019-06-10T02:16:04.511Z,9.17
2019-06-10T02:18:33.181Z,15.07
2019-06-10T02:21:01.816Z,7.47
2019-06-10T02:23:31.318Z,10.43
2019-06-10T02:26:01.639Z,13.53
2019-06-10T02:28:31.673Z,9.70
2019-06-10T02:31:03.683Z,8.60
2019-06-10T02:33:35.985Z,10.13
2019-06-10T02:36:04.251Z,8.30
2019-06-10T02:38:38.912Z,10.13
2019-06-10T02:41:04.396Z,7.50
2019-06-10T02:43:37.495Z,10.27
2019-06-10T02:46:05.100Z,7.10
2019-06-10T02:48:35.343Z,10.60
2019-06-10T02:51:06.700Z,9.40
2019-06-10T02:53:37.017Z,10.90
2019-06-10T02:56:06.674Z,12.17
2019-06-10T02:58:39.473Z,11.33
2019-06-10T03:01:07.326Z,14.03
2019-06-10T03:03:43.645Z,10.90
2019-06-10T03:06:08.793Z,10.73
2019-06-10T03:08:37.210Z,7.63
2019-06-10T03:11:06.139Z,11.13
2019-06-10T03:13:34.907Z,27.17
2019-06-10T03:16:17.823Z,8.40
2019-06-10T03:18:46.632Z,12.50
2019-06-10T03:21:15.970Z,10.00
2019-06-10T03:23:44.800Z,14.67
2019-06-10T03:26:13.423Z,9.57
2019-06-10T03:28:42.739Z,8.23
2019-06-10T03:31:15.125Z,12.03
2019-06-10T03:33:47.292Z,8.40
2019-06-10T03:36:12.633Z,8.50
2019-06-10T03:38:43.279Z,13.30
2019-06-10T03:41:12.454Z,13.60
2019-06-10T03:43:43.013Z,11.03
2019-06-10T03:46:13.546Z,7.40
2019-06-10T03:48:43.274Z,9.93
2019-06-10T03:51:12.669Z,6.87
2019-06-10T03:53:42.650Z,14.20
2019-06-10T03:56:12.818Z,12.20
2019-06-10T03:58:43.116Z,11.87
2019-06-10T04:01:12.565Z,19.27
2019-06-10T04:03:42.827Z,12.87
2019-06-10T04:06:12.947Z,13.87
2019-06-10T04:08:43.286Z,11.20
2019-06-10T04:11:12.494Z,9.90
2019-06-10T04:13:43.076Z,10.00
2019-06-10T04:16:13.075Z,14.70
2019-06-10T04:18:42.990Z,8.63
2019-06-10T04:21:12.827Z,14.90
2019-06-10T04:23:42.341Z,11.10
2019-06-10T04:26:12.770Z,19.43
2019-06-10T04:28:42.962Z,10.53
2019-06-10T04:31:13.168Z,14.67
2019-06-10T04:33:42.348Z,14.43
2019-06-10T04:36:13.412Z,12.23
2019-06-10T04:38:43.362Z,8.47
2019-06-10T04:41:12.737Z,11.67
2019-06-10T04:43:43.245Z,10.10
2019-06-10T04:46:12.677Z,9.10
2019-06-10T04:48:42.653Z,11.60
2019-06-10T04:51:12.967Z,13.57
2019-06-10T04:53:43.521Z,13.60
2019-06-10T04:56:12.535Z,10.87
2019-06-10T04:58:43.226Z,12.27
2019-06-10T05:01:12.405Z,13.00
2019-06-10T05:03:43.304Z,16.37
2019-06-10T05:06:12.285Z,12.80
2019-06-10T05:08:42.616Z,12.33
2019-06-10T05:11:12.877Z,10.20
2019-06-10T05:13:42.917Z,16.80
2019-06-10T05:16:12.734Z,10.90
2019-06-10T05:18:42.408Z,13.03
2019-06-10T05:21:13.043Z,17.30
2019-06-10T05:23:43.014Z,10.47
2019-06-10T05:26:13.300Z,15.83
2019-06-10T05:28:43.176Z,9.40
2019-06-10T05:31:12.893Z,9.43
2019-06-10T05:33:42.560Z,9.13
2019-06-10T05:36:13.230Z,11.03
2019-06-10T05:38:43.455Z,8.90
2019-06-10T05:41:13.381Z,12.40
2019-06-10T05:43:43.002Z,10.57
2019-06-10T05:46:13.653Z,8.40
2019-06-10T05:48:43.744Z,11.53
2019-06-10T05:51:12.815Z,22.17
2019-06-10T05:53:42.613Z,17.30
2019-06-10T05:56:12.830Z,12.93
2019-06-10T05:58:43.578Z,9.33
2019-06-10T06:01:13.177Z,9.13
2019-06-10T06:03:43.971Z,9.07
2019-06-10T06:06:12.842Z,14.27
2019-06-10T06:08:42.975Z,12.43
2019-06-10T06:11:12.642Z,10.83
2019-06-10T06:13:43.226Z,15.53
2019-06-10T06:16:12.583Z,15.30
2019-06-10T06:18:42.194Z,10.17
2019-06-10T06:21:22.321Z,14.73
2019-06-10T06:23:43.668Z,11.37
2019-06-10T06:26:16.207Z,6.17
2019-06-10T06:28:42.983Z,11.07
2019-06-10T06:31:12.787Z,12.67
2019-06-10T06:33:43.210Z,12.83
2019-06-10T06:36:12.720Z,7.80
2019-06-10T06:38:43.877Z,8.70
2019-06-10T06:41:13.650Z,17.20
2019-06-10T06:43:45.212Z,8.87
2019-06-10T06:46:13.075Z,8.50
2019-06-10T06:48:43.803Z,6.93
2019-06-10T06:51:12.972Z,12.37
2019-06-10T06:53:50.630Z,9.90
2019-06-10T06:56:12.720Z,9.27
2019-06-10T06:58:43.535Z,7.63
2019-06-10T07:01:14.607Z,5.97
2019-06-10T07:03:45.109Z,11.87
2019-06-10T07:06:14.569Z,10.33
2019-06-10T07:09:00.312Z,11.47
2019-06-10T07:11:18.639Z,13.07
2019-06-10T07:13:47.459Z,6.53
2019-06-10T07:16:16.206Z,7.23
2019-06-10T07:18:49.864Z,14.10
2019-06-10T07:21:15.263Z,11.20
2019-06-10T07:23:46.611Z,16.03
2019-06-10T07:26:14.959Z,7.90
2019-06-10T07:28:47.118Z,11.93
2019-06-10T07:31:23.150Z,13.77
2019-06-10T07:33:46.866Z,12.00
2019-06-10T07:36:14.935Z,6.33
2019-06-10T07:38:48.645Z,7.13
2019-06-10T07:41:13.951Z,7.87
2019-06-10T07:43:49.319Z,7.80
2019-06-10T07:46:13.602Z,8.50
2019-06-10T07:48:47.838Z,12.00
2019-06-10T07:51:14.450Z,10.93
2019-06-10T07:53:46.571Z,10.43
2019-06-10T07:56:13.544Z,11.13
2019-06-10T07:58:47.020Z,8.43
2019-06-10T08:01:13.113Z,14.57
2019-06-10T08:03:46.003Z,9.27
2019-06-10T08:06:12.845Z,16.47
2019-06-10T08:08:44.784Z,10.80
2019-06-10T08:11:13.705Z,14.57
2019-06-10T08:13:45.866Z,15.10
2019-06-10T08:16:13.313Z,11.30
2019-06-10T08:19:13.844Z,19.00
2019-06-10T08:21:12.655Z,9.47
2019-06-10T08:23:44.746Z,20.80
2019-06-10T08:26:12.692Z,14.90
2019-06-10T08:28:42.572Z,6.63
2019-06-10T08:31:12.469Z,12.43
2019-06-10T08:33:44.317Z,12.17
2019-06-10T08:36:13.588Z,8.60
2019-06-10T08:38:44.689Z,8.40
2019-06-10T08:41:12.571Z,13.17
2019-06-10T08:43:44.752Z,11.53
2019-06-10T08:46:16.956Z,13.40
2019-06-10T08:48:47.691Z,10.93
2019-06-10T08:51:16.131Z,14.33
2019-06-10T08:53:46.928Z,17.70
2019-06-10T08:56:26.335Z,18.87
2019-06-10T08:58:55.404Z,12.37
2019-06-10T09:01:24.110Z,17.57
2019-06-10T09:03:53.721Z,12.40
2019-06-10T09:06:23.244Z,15.40
2019-06-10T09:08:54.432Z,15.33
2019-06-10T09:11:23.741Z,7.40
2019-06-10T09:13:53.203Z,9.83
2019-06-10T09:16:23.020Z,13.20
2019-06-10T09:18:54.924Z,18.53
2019-06-10T09:21:22.466Z,17.83
2019-06-10T09:23:58.573Z,11.70
2019-06-10T09:26:23.002Z,12.83
2019-06-10T09:28:55.777Z,8.87
2019-06-10T09:31:23.977Z,18.70
2019-06-10T09:33:56.636Z,11.53
2019-06-10T09:36:23.703Z,8.17
2019-06-10T09:38:54.994Z,21.87
2019-06-10T09:41:36.061Z,9.63
2019-06-10T09:43:57.007Z,8.90
2019-06-10T09:46:24.231Z,8.93
2019-06-10T09:48:55.864Z,9.70
2019-06-10T09:51:23.306Z,20.43
2019-06-10T09:54:02.369Z,16.33
2019-06-10T09:56:23.423Z,9.17
2019-06-10T09:58:55.134Z,17.27
2019-06-10T10:01:24.503Z,14.27
2019-06-10T10:03:59.383Z,12.13
2019-06-10T10:06:24.607Z,10.53
2019-06-10T10:08:58.376Z,15.97
2019-06-10T10:11:28.307Z,9.90
2019-06-10T10:13:55.047Z,17.93
2019-06-10T10:16:23.711Z,28.10
2019-06-10T10:19:00.237Z,23.13
2019-06-10T10:21:22.739Z,23.73
2019-06-10T10:24:06.286Z,10.93
2019-06-10T10:26:21.807Z,22.20
2019-06-10T10:28:53.224Z,29.37
2019-06-10T10:31:23.011Z,22.53
2019-06-10T10:33:52.576Z,12.70
2019-06-10T10:36:22.655Z,9.37
2019-06-10T10:38:52.325Z,10.07
2019-06-10T10:41:23.478Z,19.73
2019-06-10T10:43:56.550Z,10.80
2019-06-10T10:46:23.109Z,21.40
2019-06-10T10:48:56.677Z,13.43
2019-06-10T10:51:32.520Z,19.20
2019-06-10T10:54:21.001Z,18.30
2019-06-10T10:56:33.381Z,19.10
2019-06-10T10:59:02.142Z,18.93
2019-06-10T11:01:33.131Z,29.97
2019-06-10T11:04:03.041Z,16.60
2019-06-10T11:06:32.263Z,13.73
2019-06-10T11:09:01.147Z,15.00
2019-06-10T11:11:33.139Z,17.97
2019-06-10T11:14:03.459Z,22.97
2019-06-10T11:16:33.162Z,26.33
2019-06-10T11:19:02.689Z,13.80
2019-06-10T11:21:33.013Z,12.30
2019-06-10T11:24:04.619Z,25.43
2019-06-10T11:26:33.007Z,16.23
2019-06-10T11:29:03.075Z,15.27
2019-06-10T11:31:32.813Z,16.90
2019-06-10T11:34:03.854Z,19.13
2019-06-10T11:36:32.766Z,21.40
2019-06-10T11:39:02.828Z,17.30
2019-06-10T11:41:32.517Z,10.03
2019-06-10T11:44:01.366Z,11.27
2019-06-10T11:46:32.309Z,20.13
2019-06-10T11:49:02.914Z,16.20
2019-06-10T11:51:30.732Z,11.30
2019-06-10T11:53:59.578Z,25.57
2019-06-10T11:56:28.274Z,17.53
2019-06-10T11:58:59.224Z,29.13
2019-06-10T12:01:27.389Z,13.40
2019-06-10T12:03:59.251Z,16.93
2019-06-10T12:06:27.967Z,16.67
2019-06-10T12:09:00.416Z,25.93
2019-06-10T12:11:27.401Z,16.97
2019-06-10T12:14:01.928Z,21.70
2019-06-10T12:17:15.635Z,20.60
2019-06-10T12:18:58.572Z,30.73
2019-06-10T12:21:27.356Z,24.40
2019-06-10T12:24:00.510Z,19.37
2019-06-10T12:26:26.605Z,25.30
2019-06-10T12:28:58.746Z,24.43
2019-06-10T12:31:25.647Z,18.30
2019-06-10T12:33:57.189Z,26.53
2019-06-10T12:36:24.805Z,21.90
2019-06-10T12:38:58.289Z,14.50
2019-06-10T12:41:23.878Z,25.53
2019-06-10T12:43:53.540Z,15.87
2019-06-10T12:46:23.406Z,17.20
2019-06-10T12:48:54.923Z,14.60
2019-06-10T12:51:22.929Z,27.63
2019-06-10T12:53:53.284Z,23.27
2019-06-10T12:56:22.816Z,27.57
2019-06-10T12:58:54.114Z,26.27
2019-06-10T13:01:22.147Z,20.23
2019-06-10T13:03:53.621Z,26.57
2019-06-10T13:06:23.557Z,20.67
2019-06-10T13:08:53.415Z,23.07
2019-06-10T13:11:23.411Z,13.40
2019-06-10T13:13:53.015Z,15.87
2019-06-10T13:16:22.050Z,28.50
2019-06-10T13:18:52.510Z,21.90
2019-06-10T13:21:22.807Z,24.90
2019-06-10T13:23:54.143Z,25.10
2019-06-10T13:26:23.274Z,23.83
2019-06-10T13:28:52.579Z,20.60
2019-06-10T13:31:23.583Z,24.37
2019-06-10T13:33:52.949Z,21.20
2019-06-10T13:36:25.576Z,21.20
2019-06-10T13:38:53.786Z,19.50
2019-06-10T13:41:22.834Z,21.43
2019-06-10T13:43:52.690Z,17.80
2019-06-10T13:46:24.588Z,20.70
2019-06-10T13:48:52.769Z,21.37
2019-06-10T13:51:21.422Z,27.47
2019-06-10T13:53:50.085Z,14.80
2019-06-10T13:56:39.597Z,18.57
2019-06-10T13:58:49.476Z,22.30
2019-06-10T14:01:21.980Z,17.90
2019-06-10T14:03:48.594Z,37.60
2019-06-10T14:06:37.117Z,15.73
2019-06-10T14:08:47.725Z,20.33
2019-06-10T14:11:16.640Z,20.80
2019-06-10T14:13:45.268Z,25.83
2019-06-10T14:16:15.151Z,20.30
2019-06-10T14:18:43.914Z,27.47
2019-06-10T14:21:17.968Z,23.10
2019-06-10T14:23:43.348Z,27.00
2019-06-10T14:26:16.679Z,18.20
2019-06-10T14:28:44.427Z,17.30
2019-06-10T14:31:33.709Z,21.20
2019-06-10T14:33:44.865Z,15.63
2019-06-10T14:36:16.651Z,30.87
2019-06-10T14:38:43.933Z,24.33
2019-06-10T14:41:12.616Z,19.73
2019-06-10T14:43:42.388Z,18.80
2019-06-10T14:46:14.404Z,16.33
2019-06-10T14:48:42.652Z,27.47
2019-06-10T14:51:14.017Z,14.73
2019-06-10T14:53:42.723Z,20.60
2019-06-10T14:56:14.883Z,15.57
2019-06-10T14:58:42.514Z,21.30
2019-06-10T15:01:17.874Z,16.30
2019-06-10T15:03:42.978Z,20.03
2019-06-10T15:06:11.911Z,11.30
2019-06-10T15:08:42.704Z,28.70
2019-06-10T15:11:11.687Z,18.67
2019-06-10T15:13:43.255Z,16.90
2019-06-10T15:16:12.193Z,19.87
2019-06-10T15:18:43.176Z,23.23
2019-06-10T15:21:11.545Z,18.40
2019-06-10T15:23:42.732Z,27.63
2019-06-10T15:26:13.140Z,22.17
2019-06-10T15:28:42.730Z,21.37
2019-06-10T15:31:13.539Z,15.23
2019-06-10T15:33:43.014Z,13.10
2019-06-10T15:36:13.198Z,15.90
2019-06-10T15:38:44.067Z,21.40
2019-06-10T15:41:16.047Z,15.83
2019-06-10T15:43:42.964Z,19.73
2019-06-10T15:46:12.945Z,20.73
2019-06-10T15:48:47.103Z,31.13
2019-06-10T15:51:19.249Z,25.40
2019-06-10T15:53:46.177Z,24.23
2019-06-10T15:56:27.031Z,20.63
2019-06-10T15:58:45.184Z,28.23
2019-06-10T16:01:16.475Z,24.47
2019-06-10T16:03:44.222Z,28.40
2019-06-10T16:06:13.909Z,25.70
2019-06-10T16:08:43.218Z,20.63
2019-06-10T16:11:15.416Z,21.07
2019-06-10T16:13:44.994Z,28.83
2019-06-10T16:16:14.784Z,20.93
2019-06-10T16:18:44.226Z,19.40
2019-06-10T16:21:15.226Z,21.93
2019-06-10T16:23:43.315Z,25.10
2019-06-10T16:26:13.049Z,19.53
2019-06-10T16:28:42.807Z,20.00
2019-06-10T16:31:13.168Z,23.87
2019-06-10T16:33:49.178Z,29.00
2019-06-10T16:36:12.495Z,24.80
2019-06-10T16:38:42.300Z,30.03
2019-06-10T16:41:12.291Z,34.70
2019-06-10T16:43:42.851Z,18.67
2019-06-10T16:46:13.099Z,30.30
2019-06-10T16:48:44.199Z,24.70
2019-06-10T16:51:13.435Z,30.70
2019-06-10T16:53:42.719Z,30.73
2019-06-10T16:56:12.177Z,22.90
2019-06-10T16:58:43.113Z,28.60
2019-06-10T17:01:12.453Z,20.53
2019-06-10T17:03:42.999Z,30.97
2019-06-10T17:06:13.065Z,40.40
2019-06-10T17:08:42.597Z,29.43
2019-06-10T17:11:12.386Z,21.90
2019-06-10T17:13:42.301Z,25.50
2019-06-10T17:16:12.779Z,32.00
2019-06-10T17:18:41.789Z,17.07
2019-06-10T17:21:13.037Z,29.90
2019-06-10T17:23:43.143Z,20.93
2019-06-10T17:26:11.312Z,23.10
2019-06-10T17:28:42.629Z,23.53
2019-06-10T17:31:10.384Z,28.53
2019-06-10T17:33:39.081Z,27.17
2019-06-10T17:36:07.775Z,30.13
2019-06-10T17:38:36.428Z,23.27
2019-06-10T17:41:05.133Z,30.90
2019-06-10T17:43:34.548Z,23.87
2019-06-10T17:46:03.588Z,24.10
2019-06-10T17:48:33.686Z,25.70
2019-06-10T17:51:03.622Z,26.17
2019-06-10T17:53:34.677Z,20.47
2019-06-10T17:56:04.506Z,17.17
2019-06-10T17:58:49.996Z,32.77
2019-06-10T18:01:03.627Z,21.67
2019-06-10T18:03:33.436Z,29.23
2019-06-10T18:06:02.909Z,24.13
2019-06-10T18:08:34.954Z,22.83
2019-06-10T18:11:03.267Z,24.80
2019-06-10T18:13:34.292Z,16.93
2019-06-10T18:16:02.982Z,23.93
2019-06-10T18:18:36.551Z,33.00
2019-06-10T18:21:03.459Z,25.83
2019-06-10T18:23:35.156Z,30.80
2019-06-10T18:26:04.250Z,11.73
2019-06-10T18:28:45.579Z,28.03
2019-06-10T18:31:03.595Z,15.80
2019-06-10T18:33:34.977Z,20.13
2019-06-10T18:36:02.658Z,25.10
2019-06-10T18:38:33.993Z,19.60
2019-06-10T18:41:03.223Z,23.07
2019-06-10T18:43:34.986Z,36.20
2019-06-10T18:46:03.500Z,22.10
2019-06-10T18:48:35.963Z,22.50
2019-06-10T18:51:02.859Z,25.13
2019-06-10T18:53:33.533Z,24.00
2019-06-10T18:56:02.138Z,15.53
2019-06-10T18:58:34.318Z,22.40
2019-06-10T19:01:07.042Z,23.33
2019-06-10T19:03:34.691Z,22.63
2019-06-10T19:06:02.319Z,19.70
2019-06-10T19:08:33.698Z,17.80
2019-06-10T19:11:02.400Z,20.20
2019-06-10T19:13:35.327Z,17.47
2019-06-10T19:16:03.466Z,30.77
2019-06-10T19:18:33.904Z,27.43
2019-06-10T19:21:04.290Z,29.00
2019-06-10T19:23:35.070Z,18.97
2019-06-10T19:26:05.143Z,16.20
2019-06-10T19:28:37.058Z,23.00
2019-06-10T19:31:04.274Z,25.30
2019-06-10T19:33:35.764Z,16.50
2019-06-10T19:36:03.386Z,14.43
2019-06-10T19:38:33.973Z,25.60
2019-06-10T19:41:02.817Z,20.10
2019-06-10T19:43:34.605Z,32.43
2019-06-10T19:46:04.303Z,27.57
2019-06-10T19:48:36.318Z,29.43
2019-06-10T19:51:03.259Z,37.33
2019-06-10T19:53:33.044Z,11.87
2019-06-10T19:56:02.678Z,27.83
2019-06-10T19:58:32.376Z,45.27
2019-06-10T20:01:01.353Z,23.13
2019-06-10T20:03:32.521Z,16.63
2019-06-10T20:06:02.880Z,37.87
2019-06-10T20:08:33.068Z,21.17
2019-06-10T20:11:03.474Z,29.87
2019-06-10T20:13:32.462Z,22.10
2019-06-10T20:16:02.965Z,33.20
2019-06-10T20:18:33.194Z,14.77
2019-06-10T20:21:02.679Z,29.93
2019-06-10T20:23:33.305Z,26.50
2019-06-10T20:26:02.347Z,27.70
2019-06-10T20:28:32.168Z,19.60
2019-06-10T20:31:00.970Z,17.80
2019-06-10T20:33:35.868Z,15.93
2019-06-10T20:36:06.299Z,27.83
2019-06-10T20:38:32.589Z,18.70
2019-06-10T20:41:02.645Z,20.00
2019-06-10T20:43:32.795Z,20.80
2019-06-10T20:46:05.322Z,21.93
2019-06-10T20:48:33.220Z,16.83
2019-06-10T20:51:03.095Z,28.33
2019-06-10T20:53:33.869Z,19.50
2019-06-10T20:56:03.721Z,28.00
2019-06-10T20:58:33.214Z,21.50
2019-06-10T21:01:04.704Z,18.97
2019-06-10T21:03:32.645Z,24.23
2019-06-10T21:06:03.398Z,15.67
2019-06-10T21:08:33.841Z,22.63
2019-06-10T21:11:03.121Z,22.50
2019-06-10T21:13:32.837Z,24.33
2019-06-10T21:16:03.672Z,26.03
2019-06-10T21:18:33.026Z,21.53
2019-06-10T21:21:02.093Z,20.93
2019-06-10T21:23:30.847Z,24.30
2019-06-10T21:26:02.558Z,13.93
2019-06-10T21:28:32.433Z,23.40
2019-06-10T21:31:02.669Z,23.00
2019-06-10T21:33:33.239Z,19.27
2019-06-10T21:36:03.848Z,21.83
2019-06-10T21:38:32.340Z,26.43
2019-06-10T21:41:03.256Z,17.97
2019-06-10T21:43:33.043Z,21.27
2019-06-10T21:46:03.656Z,21.80
2019-06-10T21:48:32.487Z,33.33
2019-06-10T21:51:01.437Z,26.47
2019-06-10T21:53:30.140Z,23.80
2019-06-10T21:55:58.816Z,17.50
2019-06-10T21:58:27.519Z,38.37
2019-06-10T22:01:09.776Z,19.13
2019-06-10T22:03:26.803Z,30.53
2019-06-10T22:05:55.457Z,29.80
2019-06-10T22:08:24.208Z,30.07
2019-06-10T22:10:55.044Z,20.60
2019-06-10T22:13:23.269Z,20.67
2019-06-10T22:15:54.873Z,28.87
2019-06-10T22:18:22.875Z,16.80
2019-06-10T22:20:56.010Z,19.50
2019-06-10T22:23:23.240Z,24.13
2019-06-10T22:25:55.612Z,25.00
2019-06-10T22:28:22.657Z,17.60
2019-06-10T22:30:54.103Z,23.27
2019-06-10T22:33:22.659Z,23.43
2019-06-10T22:35:55.410Z,26.60
2019-06-10T22:38:22.274Z,24.80
2019-06-10T22:40:53.634Z,23.37
2019-06-10T22:43:23.536Z,26.73
2019-06-10T22:45:55.197Z,23.43
2019-06-10T22:48:22.596Z,23.53
2019-06-10T22:50:51.427Z,17.83
2019-06-10T22:53:22.964Z,30.27
2019-06-10T22:55:53.022Z,26.77
2019-06-10T22:58:23.678Z,21.70
2019-06-10T23:00:54.838Z,33.10
2019-06-10T23:03:24.189Z,23.83
2019-06-10T23:05:54.344Z,26.27
2019-06-10T23:08:23.210Z,22.50
2019-06-10T23:10:53.768Z,26.27
2019-06-10T23:13:23.066Z,17.53
2019-06-10T23:15:53.960Z,22.93
2019-06-10T23:18:22.591Z,25.63
2019-06-10T23:20:53.920Z,22.07
2019-06-10T23:23:23.343Z,20.53
2019-06-10T23:25:51.976Z,26.67
2019-06-10T23:28:22.222Z,36.90
2019-06-10T23:30:55.273Z,27.27
2019-06-10T23:33:22.951Z,24.77
2019-06-10T23:35:52.620Z,24.40
2019-06-10T23:38:23.583Z,21.20
2019-06-10T23:40:53.226Z,28.23
2019-06-10T23:43:22.537Z,21.90
2019-06-10T23:45:51.400Z,22.57
2019-06-10T23:48:22.534Z,17.13
2019-06-10T23:50:54.100Z,29.30
2019-06-10T23:53:23.032Z,22.17
2019-06-10T23:55:51.822Z,20.67
2019-06-10T23:58:22.846Z,27.43
